Time;durP1;ratioP1;P1;durP2;ratioP2;P2;SDS_P1;SDS_P2;PMS_P1;PMS_P2;Temp;Humidity;BMP_temperature;BMP_pressure;BME280_temperature;BME280_humidity;BME280_pressure;Samples;Min_cycle;Max_cycle;Signal;HPM_P1;HPM_P2
2023/06/05 04:30:37;;;;;;;;;7.50;6.50;;;;;19.88;47.69;101429.75;5006184;28;46523;-74
2023/06/05 04:33:06;;;;;;;;;8.00;5.50;;;;;19.89;47.82;101438.78;4946694;28;45356;-74
2023/06/05 04:35:33;;;;;;;;;9.00;6.00;;;;;19.84;47.93;101430.06;4961813;28;46717;-71
2023/06/05 04:37:59;;;;;;;;;8.50;6.25;;;;;19.87;48.26;101438.91;4957159;28;45419;-76
2023/06/05 04:40:24;;;;;;;;;5.00;4.50;;;;;19.87;47.91;101435.31;4956891;28;45302;-73
2023/06/05 04:42:52;;;;;;;;;7.25;6.25;;;;;19.83;48.17;101439.22;4957048;28;45549;-72
2023/06/05 04:45:17;;;;;;;;;5.50;5.25;;;;;19.77;48.13;101437.81;4956928;28;45350;-73
2023/06/05 04:47:43;;;;;;;;;9.00;6.50;;;;;19.83;48.09;101444.66;4956744;28;45341;-73
2023/06/05 04:50:21;;;;;;;;;6.00;5.75;;;;;19.81;48.32;101446.66;4957074;28;45261;-73
2023/06/05 04:52:46;;;;;;;;;8.00;5.25;;;;;19.70;48.05;101432.94;4956869;28;45445;-75
2023/06/05 04:55:12;;;;;;;;;9.75;6.75;;;;;19.79;48.09;101445.88;4956715;28;45426;-73
2023/06/05 04:57:37;;;;;;;;;10.25;8.50;;;;;19.79;48.39;101451.31;4962236;28;45406;-73
2023/06/05 05:00:05;;;;;;;;;7.25;7.25;;;;;19.74;48.42;101432.59;4955118;28;45283;-72
2023/06/05 05:02:30;;;;;;;;;8.25;6.00;;;;;19.82;48.68;101449.22;4956253;28;45581;-73
2023/06/05 05:04:56;;;;;;;;;11.00;7.00;;;;;19.83;48.38;101448.25;4956390;28;45964;-72
2023/06/05 05:07:22;;;;;;;;;10.50;8.25;;;;;19.92;48.39;101455.75;4956699;28;45463;-74
2023/06/05 05:09:48;;;;;;;;;9.50;8.00;;;;;19.87;48.32;101446.19;4956480;28;45362;-75
2023/06/05 05:12:14;;;;;;;;;9.25;6.50;;;;;19.93;48.43;101456.63;4956443;28;45299;-74
2023/06/05 05:14:44;;;;;;;;;8.75;8.75;;;;;19.92;48.07;101446.72;4956571;28;46343;-74
2023/06/05 05:17:09;;;;;;;;;8.00;8.00;;;;;19.90;48.37;101449.56;4955644;28;45558;-73
2023/06/05 05:19:35;;;;;;;;;11.00;8.00;;;;;19.79;48.56;101435.88;4956431;28;45236;-74
2023/06/05 05:22:00;;;;;;;;;6.75;5.50;;;;;19.81;48.39;101436.63;4955775;28;45237;-73
2023/06/05 05:24:26;;;;;;;;;10.00;7.50;;;;;19.83;48.68;101450.09;4956017;28;45339;-73
2023/06/05 05:26:52;;;;;;;;;10.50;7.25;;;;;19.86;48.46;101449.88;4945294;28;45384;-73
2023/06/05 05:29:17;;;;;;;;;15.00;11.00;;;;;19.81;48.57;101439.34;4954345;28;45421;-71
2023/06/05 05:31:44;;;;;;;;;9.25;8.50;;;;;19.84;48.68;101449.13;4976331;28;45485;-72
2023/06/05 05:34:09;;;;;;;;;7.00;7.00;;;;;19.84;49.17;101452.72;4986602;28;45419;-72
2023/06/05 05:36:36;;;;;;;;;11.25;9.00;;;;;19.83;48.77;101456.41;4994942;28;45324;-72
2023/06/05 05:39:02;;;;;;;;;11.25;8.25;;;;;19.94;48.68;101459.22;4993482;28;45400;-72
2023/06/05 05:41:28;;;;;;;;;9.00;9.00;;;;;19.91;48.63;101453.13;4973730;28;46610;-74
2023/06/05 05:43:54;;;;;;;;;14.50;12.75;;;;;19.94;48.79;101459.22;4974676;28;46179;-69
2023/06/05 05:46:19;;;;;;;;;9.75;8.75;;;;;19.95;48.94;101466.41;4974854;28;45481;-69
2023/06/05 05:48:44;;;;;;;;;16.25;9.25;;;;;19.93;48.76;101462.94;4977082;28;45586;-69
2023/06/05 05:51:10;;;;;;;;;10.75;10.75;;;;;19.95;48.88;101457.38;4976673;28;45512;-70
2023/06/05 05:53:36;;;;;;;;;10.00;9.00;;;;;19.88;48.78;101456.97;4991426;28;54209;-71
2023/06/05 05:56:03;;;;;;;;;14.75;11.00;;;;;19.93;49.05;101462.94;4994620;28;45379;-71
2023/06/05 05:58:29;;;;;;;;;10.75;10.25;;;;;19.95;48.87;101463.69;4991951;28;45415;-70
2023/06/05 06:00:54;;;;;;;;;10.25;6.75;;;;;19.99;48.97;101465.19;4985920;28;45353;-69
2023/06/05 06:03:20;;;;;;;;;9.50;8.00;;;;;19.98;48.99;101457.16;4994270;28;45415;-73
2023/06/05 06:05:46;;;;;;;;;9.75;8.00;;;;;20.01;48.84;101456.91;4994530;28;45386;-74
2023/06/05 06:08:11;;;;;;;;;12.25;6.00;;;;;20.05;48.69;101465.75;4994565;28;45475;-72
2023/06/05 06:10:37;;;;;;;;;9.75;8.00;;;;;20.10;48.78;101471.69;4994790;28;45389;-73
2023/06/05 06:13:04;;;;;;;;;14.25;10.25;;;;;20.05;48.80;101454.84;4994616;28;46228;-75
2023/06/05 06:15:30;;;;;;;;;9.50;8.75;;;;;20.16;48.57;101469.38;4994951;28;45455;-73
2023/06/05 06:17:56;;;;;;;;;8.75;8.75;;;;;20.16;48.36;101468.53;4977638;28;45492;-72
2023/06/05 06:20:22;;;;;;;;;11.75;9.00;;;;;20.09;47.64;101461.78;4984994;28;45568;-72
2023/06/05 06:22:47;;;;;;;;;9.00;9.00;;;;;20.11;48.12;101473.44;4983317;28;46102;-73
2023/06/05 06:25:15;;;;;;;;;9.75;9.75;;;;;20.01;48.17;101462.38;4994384;28;45402;-72
2023/06/05 06:27:43;;;;;;;;;8.25;7.75;;;;;20.01;48.12;101471.41;4985377;28;45369;-73
2023/06/05 06:30:10;;;;;;;;;10.75;9.75;;;;;20.06;48.24;101475.66;4994168;28;45558;-73
2023/06/05 06:32:35;;;;;;;;;9.00;9.00;;;;;20.05;48.41;101477.50;4993613;28;45650;-74
2023/06/05 06:35:00;;;;;;;;;9.75;7.75;;;;;20.08;48.24;101479.09;4984555;28;45499;-73
2023/06/05 06:37:26;;;;;;;;;4.75;4.75;;;;;20.16;48.19;101483.00;4991470;28;45394;-71
2023/06/05 06:39:51;;;;;;;;;8.75;8.00;;;;;20.14;48.10;101470.50;4994141;28;45358;-72
2023/06/05 06:42:16;;;;;;;;;12.75;10.00;;;;;20.18;47.83;101470.16;4994080;28;46566;-73
2023/06/05 06:44:43;;;;;;;;;11.50;9.00;;;;;20.22;47.90;101463.50;4994084;28;45333;-74
2023/06/05 06:47:08;;;;;;;;;12.00;8.50;;;;;20.28;47.87;101475.78;4976677;28;45384;-74
2023/06/05 06:49:35;;;;;;;;;10.50;7.25;;;;;20.30;48.16;101466.53;4994786;28;45704;-74
2023/06/05 06:52:00;;;;;;;;;12.25;9.00;;;;;20.36;47.58;101474.25;4994655;28;47098;-72
2023/06/05 06:54:28;;;;;;;;;11.50;10.25;;;;;20.38;47.74;101477.75;4994690;28;45450;-72
2023/06/05 06:56:56;;;;;;;;;10.50;9.00;;;;;20.45;47.20;101474.53;4976623;28;45373;-73
2023/06/05 06:59:22;;;;;;;;;10.25;9.50;;;;;20.45;47.36;101474.53;4965038;28;45387;-72
2023/06/05 07:02:08;;;;;;;;;8.25;8.25;;;;;20.38;47.25;101466.84;4984066;28;45412;-71
2023/06/05 07:04:33;;;;;;;;;11.00;8.00;;;;;20.42;47.63;101472.91;4997319;28;45262;-72
2023/06/05 07:06:59;;;;;;;;;10.50;8.00;;;;;20.47;47.38;101478.03;4980228;28;45492;-72
2023/06/05 07:09:25;;;;;;;;;11.50;10.25;;;;;20.47;46.92;101465.28;4997300;28;45994;-73
2023/06/05 07:11:50;;;;;;;;;14.50;11.75;;;;;20.48;47.08;101469.75;4997508;28;45344;-71
2023/06/05 07:14:16;;;;;;;;;10.75;9.25;;;;;20.54;46.95;101476.56;4998050;28;45332;-73
2023/06/05 07:16:41;;;;;;;;;11.25;10.00;;;;;20.58;46.97;101472.66;4997115;28;45924;-73
2023/06/05 07:19:06;;;;;;;;;8.25;7.25;;;;;20.63;46.78;101473.16;4997146;28;45302;-74
2023/06/05 07:21:37;;;;;;;;;9.75;9.75;;;;;20.63;46.60;101478.59;4997019;28;46848;-74
2023/06/05 07:24:03;;;;;;;;;10.25;9.25;;;;;20.58;46.63;101467.19;4997426;28;45374;-73
2023/06/05 07:26:29;;;;;;;;;10.75;10.75;;;;;20.58;46.50;101478.09;4997229;28;45392;-74
2023/06/05 07:28:54;;;;;;;;;9.00;6.75;;;;;20.55;46.55;101471.00;4997260;28;45289;-71
2023/06/05 07:31:21;;;;;;;;;11.50;10.75;;;;;20.59;46.90;101486.13;4996765;28;45198;-73
2023/06/05 07:33:46;;;;;;;;;11.50;10.50;;;;;20.62;46.43;101479.59;4987995;28;45432;-73
2023/06/05 07:36:14;;;;;;;;;9.75;9.75;;;;;20.67;46.61;101488.28;4996658;28;45391;-74
2023/06/05 07:38:40;;;;;;;;;11.50;11.25;;;;;20.72;46.89;101483.34;4996834;28;45411;-72
2023/06/05 07:41:06;;;;;;;;;9.50;7.25;;;;;20.78;46.64;101481.00;4997011;28;45574;-73
2023/06/05 07:43:32;;;;;;;;;10.33;9.33;;;;;20.87;46.09;101479.44;4996946;28;45412;-73
2023/06/05 07:45:57;;;;;;;;;13.00;9.75;;;;;20.92;46.23;101470.91;4996792;28;45475;-71
2023/06/05 07:48:23;;;;;;;;;11.00;9.00;;;;;20.97;45.97;101477.75;4996391;28;46188;-75
2023/06/05 07:50:48;;;;;;;;;10.25;7.75;;;;;21.07;45.79;101480.63;4996857;28;45799;-74
2023/06/05 07:53:13;;;;;;;;;9.50;8.50;;;;;21.12;45.87;101471.09;4979087;28;45314;-74
2023/06/05 07:55:39;;;;;;;;;9.75;8.00;;;;;21.15;45.42;101473.59;4995779;28;45360;-73
2023/06/05 07:58:04;;;;;;;;;10.00;6.75;;;;;21.18;45.53;101471.66;4995297;28;45218;-75
2023/06/05 08:00:29;;;;;;;;;11.75;9.50;;;;;21.23;44.76;101469.41;4983801;28;45496;-74
2023/06/05 08:02:57;;;;;;;;;12.75;11.50;;;;;21.22;45.13;101465.81;4995242;28;45396;-71
2023/06/05 08:05:22;;;;;;;;;10.25;8.00;;;;;21.21;45.36;101474.09;4996706;28;45342;-73
2023/06/05 08:07:48;;;;;;;;;10.25;9.50;;;;;21.25;45.14;101468.31;4996128;28;45584;-74
2023/06/05 08:10:13;;;;;;;;;11.00;9.00;;;;;21.26;45.10;101471.91;4996101;28;48044;-71
2023/06/05 08:12:40;;;;;;;;;10.75;7.50;;;;;21.31;45.30;101469.66;4989998;28;45327;-75
2023/06/05 08:15:06;;;;;;;;;8.00;8.00;;;;;21.31;45.54;101454.19;4962190;28;45472;-72
2023/06/05 08:17:32;;;;;;;;;11.00;11.00;;;;;21.38;45.00;101462.72;4964735;28;46025;-73
2023/06/05 08:19:57;;;;;;;;;6.50;6.50;;;;;21.40;45.18;101463.47;4980390;28;46282;-73
2023/06/05 08:22:23;;;;;;;;;6.50;6.25;;;;;21.46;44.84;101461.13;4975298;28;45493;-73
2023/06/05 08:24:49;;;;;;;;;11.00;9.00;;;;;21.49;44.70;101466.34;4995651;28;45175;-74
2023/06/05 08:27:16;;;;;;;;;9.00;7.00;;;;;21.51;44.86;101461.66;4978379;28;46493;-72
2023/06/05 08:29:41;;;;;;;;;10.75;8.50;;;;;21.57;44.84;101468.47;4995544;28;45396;-71
2023/06/05 08:32:07;;;;;;;;;7.50;6.50;;;;;21.59;44.70;101463.75;4978813;28;45381;-72
2023/06/05 08:34:32;;;;;;;;;13.00;8.00;;;;;21.62;44.73;101468.94;4980375;28;45661;-71
2023/06/05 08:36:58;;;;;;;;;11.00;8.00;;;;;21.67;44.85;101468.59;4976276;28;45615;-72
2023/06/05 08:39:31;;;;;;;;;10.00;9.00;;;;;21.71;44.75;101462.75;4993464;28;47001;-74
2023/06/05 08:41:59;;;;;;;;;10.25;8.75;;;;;21.75;44.37;101474.28;4995013;28;45452;-73
2023/06/05 08:44:26;;;;;;;;;9.50;6.75;;;;;21.77;44.44;101461.41;4995324;28;45589;-75
2023/06/05 08:46:55;;;;;;;;;9.50;8.75;;;;;21.82;44.19;101459.16;4995537;28;45498;-74
2023/06/05 08:49:25;;;;;;;;;11.00;9.00;;;;;21.83;44.40;101461.75;4995837;28;46063;-74
2023/06/05 08:51:52;;;;;;;;;9.75;9.00;;;;;21.86;44.36;101460.66;4995095;28;45442;-74
2023/06/05 08:54:19;;;;;;;;;9.00;9.00;;;;;21.94;44.29;101466.34;4995746;28;45278;-72
2023/06/05 08:56:48;;;;;;;;;6.00;6.00;;;;;22.00;44.10;101467.72;4995183;28;45406;-74
2023/06/05 08:59:14;;;;;;;;;10.25;8.50;;;;;21.99;43.89;101457.78;4967904;28;47021;-75
2023/06/05 09:01:40;;;;;;;;;9.75;8.75;;;;;21.95;44.10;101443.47;4990693;28;45369;-74
2023/06/05 09:04:05;;;;;;;;;10.25;8.25;;;;;22.05;43.67;101460.88;4995154;28;45313;-76
2023/06/05 09:06:32;;;;;;;;;8.00;6.75;;;;;22.10;43.88;101468.72;4995383;28;45550;-75
2023/06/05 09:09:00;;;;;;;;;11.25;8.00;;;;;22.12;43.76;101462.09;4995416;28;45594;-75
2023/06/05 09:11:30;;;;;;;;;9.50;6.75;;;;;22.16;43.71;101451.81;4994899;28;45381;-75
2023/06/05 09:13:58;;;;;;;;;6.50;6.50;;;;;22.21;43.42;101452.28;4995370;28;45368;-75
2023/06/05 09:16:35;;;;;;;;;8.50;7.75;;;;;22.22;43.58;101448.56;4995349;28;46484;-75
2023/06/05 09:19:01;;;;;;;;;7.25;7.00;;;;;22.29;43.59;101448.94;4989951;28;46184;-74
2023/06/05 09:21:31;;;;;;;;;9.75;7.00;;;;;22.32;43.24;101445.94;4993837;28;45855;-74
2023/06/05 09:24:16;;;;;;;;;8.00;7.00;;;;;22.34;43.23;101438.47;4994837;28;45333;-75
2023/06/05 09:26:54;;;;;;;;;8.00;6.00;;;;;22.43;43.17;101444.03;4995612;28;45274;-76
2023/06/05 09:29:24;;;;;;;;;10.50;9.25;;;;;22.45;43.20;101449.38;4995394;28;45618;-75
2023/06/05 09:31:51;;;;;;;;;14.25;11.25;;;;;22.48;43.06;101447.22;4992790;28;45431;-75
2023/06/05 09:34:22;;;;;;;;;12.25;11.25;;;;;22.47;43.10;101447.34;4987358;28;45442;-75
2023/06/05 09:36:48;;;;;;;;;8.75;8.00;;;;;22.49;43.40;101442.63;4995154;28;45414;-75
2023/06/05 09:39:15;;;;;;;;;10.25;9.25;;;;;22.56;43.06;101443.84;4995009;28;45564;-75
2023/06/05 09:41:44;;;;;;;;;8.75;7.75;;;;;22.59;43.12;101443.59;4994668;28;45368;-74
2023/06/05 09:44:11;;;;;;;;;11.00;8.75;;;;;22.62;43.26;101433.28;4981695;28;45500;-76
2023/06/05 09:46:56;;;;;;;;;8.25;7.00;;;;;22.68;43.03;101426.41;4977072;28;45417;-75
2023/06/05 09:49:28;;;;;;;;;11.25;10.75;;;;;22.73;43.13;101431.47;4994749;28;45555;-74
2023/06/05 09:52:00;;;;;;;;;8.75;7.50;;;;;22.77;42.95;101416.59;4993896;28;45305;-75
2023/06/05 09:54:27;;;;;;;;;10.00;8.75;;;;;22.85;42.24;101425.84;4995134;28;45475;-75
2023/06/05 09:56:57;;;;;;;;;12.00;9.75;;;;;22.84;42.34;101412.31;4994344;28;45354;-74
2023/06/05 09:59:26;;;;;;;;;10.75;10.00;;;;;22.87;42.86;101420.25;4983370;28;46685;-75
2023/06/05 10:01:52;;;;;;;;;13.50;11.25;;;;;22.94;42.91;101422.31;4992290;28;45271;-76
2023/06/05 10:04:23;;;;;;;;;11.00;10.50;;;;;22.96;42.33;101414.88;4994644;28;45428;-73
2023/06/05 10:06:52;;;;;;;;;14.25;11.25;;;;;23.05;42.38;101429.59;4976889;28;45432;-75
2023/06/05 10:09:18;;;;;;;;;9.00;8.00;;;;;23.03;42.03;101420.66;4976680;28;47272;-74
2023/06/05 10:11:47;;;;;;;;;8.75;8.75;;;;;23.08;42.29;101433.91;4994086;28;45689;-74
2023/06/05 10:14:14;;;;;;;;;10.75;9.50;;;;;23.10;42.43;101426.44;4994371;28;45376;-74
2023/06/05 10:16:40;;;;;;;;;8.00;7.25;;;;;23.12;42.48;101425.31;4994139;28;45333;-81
2023/06/05 10:19:06;;;;;;;;;8.00;8.00;;;;;23.16;42.40;101418.56;4995014;28;45489;-71
2023/06/05 10:21:32;;;;;;;;;10.00;8.75;;;;;23.24;41.32;101426.09;4994676;28;45307;-72
2023/06/05 10:24:02;;;;;;;;;8.75;8.75;;;;;23.29;40.38;101421.09;4994416;28;45374;-74
2023/06/05 10:26:52;;;;;;;;;7.25;5.50;;;;;23.31;40.48;101424.53;4994157;28;45350;-73
2023/06/05 10:29:41;;;;;;;;;7.00;6.75;;;;;23.35;40.16;101417.81;4994743;28;46029;-79
2023/06/05 10:32:13;;;;;;;;;10.50;7.75;;;;;23.42;40.74;101416.25;4991306;28;45471;-75
2023/06/05 10:35:27;;;;;;;;;9.75;8.50;;;;;23.48;39.49;101412.97;4978524;28;45334;-75
2023/06/05 10:38:03;;;;;;;;;8.50;7.25;;;;;23.55;39.16;101411.47;4991160;28;45378;-72
2023/06/05 10:40:29;;;;;;;;;7.50;7.50;;;;;23.60;38.93;101408.31;4978955;28;45502;-76
2023/06/05 10:43:41;;;;;;;;;9.00;8.00;;;;;23.66;38.65;101411.34;4981709;28;45534;-73
2023/06/05 10:46:36;;;;;;;;;10.75;9.50;;;;;23.73;38.68;101407.03;4976119;28;45521;-73
2023/06/05 10:49:13;;;;;;;;;7.50;6.25;;;;;23.80;38.98;101406.50;4984921;28;45531;-73
2023/06/05 10:51:51;;;;;;;;;4.75;4.00;;;;;23.86;39.04;101395.84;4980831;28;46322;-74
2023/06/05 10:54:23;;;;;;;;;6.50;6.50;;;;;23.98;38.52;101392.00;4979835;28;45394;-74
2023/06/05 10:56:55;;;;;;;;;9.75;7.25;;;;;24.05;37.99;101389.56;4981786;28;45651;-74
2023/06/05 10:59:28;;;;;;;;;10.25;8.50;;;;;24.10;37.54;101390.00;4980190;28;45251;-76
2023/06/05 11:02:06;;;;;;;;;7.25;6.50;;;;;24.21;38.47;101380.81;4979454;28;46113;-74
2023/06/05 11:04:51;;;;;;;;;7.00;6.25;;;;;24.27;37.11;101375.63;4979204;28;45287;-73
2023/06/05 11:07:24;;;;;;;;;8.75;6.75;;;;;24.37;37.22;101373.75;4983373;28;46797;-75
2023/06/05 11:10:02;;;;;;;;;7.75;6.75;;;;;24.43;36.83;101373.16;5000460;28;45431;-76
2023/06/05 11:12:42;;;;;;;;;9.00;7.75;;;;;24.51;37.23;101365.09;4982443;28;47370;-73
2023/06/05 11:15:08;;;;;;;;;8.00;7.75;;;;;24.60;36.74;101370.69;4993545;28;45412;-74
2023/06/05 11:17:35;;;;;;;;;8.50;8.50;;;;;24.65;34.92;101374.75;5000075;28;45524;-75
2023/06/05 11:20:12;;;;;;;;;7.25;7.25;;;;;24.69;35.31;101361.59;5000636;28;45361;-74
2023/06/05 11:22:52;;;;;;;;;8.75;8.75;;;;;24.73;35.26;101357.56;5000232;28;46236;-74
2023/06/05 11:25:18;;;;;;;;;8.00;7.50;;;;;24.80;35.56;101359.56;4999966;28;45478;-76
2023/06/05 11:27:49;;;;;;;;;11.25;6.25;;;;;24.86;35.20;101358.97;5000302;28;45363;-75
2023/06/05 11:30:20;;;;;;;;;11.50;8.75;;;;;24.93;35.20;101350.19;5000163;28;45551;-74
2023/06/05 11:32:46;;;;;;;;;10.25;9.25;;;;;25.00;35.11;101356.84;4999062;28;46142;-73
2023/06/05 11:35:12;;;;;;;;;9.00;7.00;;;;;25.03;35.31;101349.16;4980508;28;45354;-75
2023/06/05 11:37:39;;;;;;;;;9.00;8.75;;;;;25.17;34.55;101367.03;4998665;28;45170;-74
2023/06/05 11:40:09;;;;;;;;;7.00;6.50;;;;;25.20;33.48;101342.00;4996707;28;45400;-77
2023/06/05 11:42:36;;;;;;;;;6.50;6.00;;;;;25.23;34.44;101330.75;4982507;28;47398;-73
2023/06/05 11:45:02;;;;;;;;;10.25;8.25;;;;;25.30;34.09;101331.00;4996098;28;46056;-76
2023/06/05 11:47:29;;;;;;;;;7.50;7.50;;;;;25.45;33.80;101345.94;4991432;28;45560;-77
2023/06/05 11:50:16;;;;;;;;;7.25;7.25;;;;;25.49;33.25;101351.00;4996816;28;45514;-76
2023/06/05 11:52:42;;;;;;;;;8.75;8.00;;;;;25.53;32.97;101329.56;4975732;28;45263;-74
2023/06/05 11:55:21;;;;;;;;;6.00;6.00;;;;;25.65;32.63;101328.41;4994502;28;45450;-76
2023/06/05 11:57:48;;;;;;;;;5.75;5.75;;;;;25.72;31.85;101323.16;4993443;28;45428;-77
2023/06/05 12:00:16;;;;;;;;;7.00;7.00;;;;;25.78;31.09;101334.38;4981614;28;46667;-75
2023/06/05 12:02:42;;;;;;;;;7.50;5.75;;;;;25.86;30.87;101330.88;4987187;28;47374;-75
2023/06/05 12:05:09;;;;;;;;;6.50;5.50;;;;;25.94;31.84;101334.59;4996133;28;45429;-74
2023/06/05 12:07:39;;;;;;;;;6.50;6.50;;;;;26.05;30.41;101338.09;4996335;28;45364;-75
2023/06/05 12:10:06;;;;;;;;;6.00;6.00;;;;;26.03;30.09;101313.50;4996084;28;45293;-73
2023/06/05 12:12:48;;;;;;;;;7.75;7.75;;;;;26.19;30.20;101332.94;4995973;28;46054;-73
2023/06/05 12:15:17;;;;;;;;;6.25;5.25;;;;;26.25;30.27;101329.56;4995583;28;45361;-73
2023/06/05 12:17:56;;;;;;;;;8.00;8.00;;;;;26.20;30.40;101307.16;4996066;28;45327;-74
2023/06/05 12:20:22;;;;;;;;;6.75;6.75;;;;;26.40;29.09;101329.88;4978512;28;46061;-75
2023/06/05 12:22:48;;;;;;;;;6.25;5.50;;;;;26.43;29.03;101321.31;4985553;28;46777;-75
2023/06/05 12:25:23;;;;;;;;;8.25;7.00;;;;;26.49;28.97;101323.44;4995848;28;45417;-74
2023/06/05 12:27:49;;;;;;;;;7.00;6.00;;;;;26.59;29.25;101329.72;4996228;28;45566;-75
2023/06/05 12:30:18;;;;;;;;;7.25;5.75;;;;;26.65;29.48;101320.81;4996266;28;45449;-73
2023/06/05 12:32:44;;;;;;;;;7.75;7.50;;;;;26.69;28.79;101316.72;4995698;28;45517;-74
2023/06/05 12:35:23;;;;;;;;;8.00;7.50;;;;;26.79;29.07;101321.25;4987079;28;45465;-73
2023/06/05 12:37:49;;;;;;;;;8.00;8.00;;;;;26.88;28.96;101320.28;4995412;28;45373;-73
2023/06/05 12:40:20;;;;;;;;;9.25;7.00;;;;;26.98;28.87;101321.06;4995939;28;45928;-73
2023/06/05 12:42:47;;;;;;;;;5.50;5.50;;;;;27.11;28.76;101316.84;4996092;28;46441;-72
2023/06/05 12:45:13;;;;;;;;;6.75;6.25;;;;;27.25;28.65;101314.50;4995942;28;45571;-73
2023/06/05 12:47:40;;;;;;;;;7.50;5.75;;;;;27.32;26.70;101299.03;4996142;28;45455;-75
2023/06/05 12:50:11;;;;;;;;;5.25;4.75;;;;;27.39;26.41;101314.72;4995424;28;45394;-74
2023/06/05 12:52:38;;;;;;;;;5.50;5.50;;;;;27.50;27.06;101322.72;4968711;28;48348;-73
2023/06/05 12:55:04;;;;;;;;;4.00;4.00;;;;;27.56;27.59;101307.44;4988036;28;45345;-74
2023/06/05 12:57:31;;;;;;;;;6.00;6.00;;;;;27.68;27.29;101300.59;4990031;28;45353;-72
2023/06/05 12:59:56;;;;;;;;;6.50;6.00;;;;;27.85;27.07;101309.78;4981979;28;45420;-73
2023/06/05 13:02:22;;;;;;;;;7.25;5.50;;;;;27.94;26.53;101292.22;4995371;28;46061;-74
2023/06/05 13:04:47;;;;;;;;;7.25;6.25;;;;;28.00;25.86;101288.78;4988398;28;45546;-73
2023/06/05 13:07:13;;;;;;;;;6.50;4.75;;;;;28.05;26.01;101296.53;4987438;28;45385;-73
2023/06/05 13:09:38;;;;;;;;;4.00;3.75;;;;;28.07;26.32;101300.84;4992723;28;45419;-73
2023/06/05 13:12:04;;;;;;;;;6.25;4.75;;;;;28.09;26.88;101290.50;4995178;28;45404;-73
2023/06/05 13:14:30;;;;;;;;;5.75;5.50;;;;;28.18;26.89;101289.50;4992079;28;45430;-74
2023/06/05 13:16:57;;;;;;;;;7.75;6.50;;;;;28.26;26.59;101293.31;4995231;28;45380;-73
2023/06/05 13:19:22;;;;;;;;;9.25;5.75;;;;;28.28;26.23;101291.25;4995355;28;46053;-72
2023/06/05 13:21:47;;;;;;;;;8.50;7.00;;;;;28.33;26.43;101286.94;4994580;28;45567;-72
2023/06/05 13:24:13;;;;;;;;;6.00;6.00;;;;;28.40;25.13;101282.47;4995033;28;45405;-72
2023/06/05 13:26:38;;;;;;;;;4.50;4.50;;;;;28.43;25.78;101271.06;4995515;28;45311;-75
2023/06/05 13:29:04;;;;;;;;;4.75;4.75;;;;;28.51;25.51;101276.59;4995117;28;45335;-72
2023/06/05 13:31:30;;;;;;;;;4.75;3.75;;;;;28.58;25.22;101291.41;4994977;28;45487;-73
2023/06/05 13:33:56;;;;;;;;;6.25;5.50;;;;;28.66;24.22;101281.41;4987700;28;45537;-73
2023/06/05 13:36:22;;;;;;;;;8.75;6.25;;;;;28.72;24.94;101286.22;4974796;28;45485;-72
2023/06/05 13:38:48;;;;;;;;;6.25;5.25;;;;;28.77;24.80;101281.06;4991777;28;46394;-73
2023/06/05 13:41:13;;;;;;;;;7.00;7.00;;;;;28.87;25.85;101273.44;4976137;28;46891;-73
2023/06/05 13:43:39;;;;;;;;;6.00;6.00;;;;;29.00;25.61;101275.69;4994346;28;45464;-73
2023/06/05 13:46:04;;;;;;;;;6.00;6.00;;;;;29.01;25.29;101280.16;4995045;28;45346;-72
2023/06/05 13:48:30;;;;;;;;;6.50;5.50;;;;;29.11;25.34;101280.78;4994124;28;45334;-73
2023/06/05 13:50:57;;;;;;;;;5.00;5.00;;;;;29.15;25.08;101271.13;4994894;28;46407;-72
2023/06/05 13:53:23;;;;;;;;;5.50;5.50;;;;;29.19;24.70;101281.63;4994846;28;45298;-73
2023/06/05 13:55:48;;;;;;;;;4.00;4.00;;;;;29.22;24.81;101274.91;4994630;28;45562;-72
2023/06/05 13:58:13;;;;;;;;;5.00;5.00;;;;;29.22;24.65;101269.38;4992830;28;45430;-72
2023/06/05 14:00:39;;;;;;;;;7.75;5.25;;;;;29.30;25.00;101280.38;4964957;28;48221;-71
2023/06/05 14:03:04;;;;;;;;;7.25;6.50;;;;;29.37;24.84;101269.50;4994252;28;45480;-71
2023/06/05 14:05:30;;;;;;;;;6.50;4.50;;;;;29.41;24.88;101268.13;4994979;28;45367;-74
2023/06/05 14:07:56;;;;;;;;;6.00;6.00;;;;;29.42;24.50;101256.91;4993749;28;45444;-73
2023/06/05 14:10:23;;;;;;;;;7.75;6.00;;;;;29.49;24.82;101265.31;4994612;28;45377;-73
2023/06/05 14:12:50;;;;;;;;;7.00;6.00;;;;;29.47;24.46;101268.25;4994490;28;45471;-73
2023/06/05 14:15:17;;;;;;;;;3.75;3.75;;;;;29.44;23.84;101256.69;4985767;28;45415;-71
2023/06/05 14:17:44;;;;;;;;;6.50;6.50;;;;;29.41;24.14;101260.69;4994333;28;45254;-73
2023/06/05 14:20:10;;;;;;;;;6.25;5.50;;;;;29.43;24.54;101250.34;4994615;28;46414;-72
2023/06/05 14:22:36;;;;;;;;;5.00;5.00;;;;;29.43;23.95;101239.28;4991096;28;45521;-74
2023/06/05 14:25:02;;;;;;;;;6.25;6.25;;;;;29.48;23.47;101245.13;4994467;28;45539;-73
2023/06/05 14:27:28;;;;;;;;;6.00;4.00;;;;;29.54;23.13;101251.81;4994142;28;45505;-73
2023/06/05 14:29:53;;;;;;;;;3.00;3.00;;;;;29.53;23.49;101250.94;4994361;28;45417;-73
2023/06/05 14:32:18;;;;;;;;;5.75;5.00;;;;;29.55;23.96;101237.81;4993801;28;47231;-73
2023/06/05 14:34:44;;;;;;;;;5.00;5.00;;;;;29.56;24.49;101242.31;4986019;28;45309;-72
2023/06/05 14:37:09;;;;;;;;;5.75;5.75;;;;;29.55;24.16;101232.28;4993634;28;47802;-73
2023/06/05 14:39:34;;;;;;;;;5.00;5.00;;;;;29.68;23.86;101246.38;4994053;28;45350;-74
2023/06/05 14:42:00;;;;;;;;;5.00;5.00;;;;;29.73;24.17;101243.06;4994023;28;46683;-72
2023/06/05 14:44:26;;;;;;;;;7.75;5.25;;;;;29.81;23.58;101239.38;4994623;28;45318;-73
2023/06/05 14:46:53;;;;;;;;;5.25;4.75;;;;;29.86;23.49;101237.78;4993916;28;45513;-73
2023/06/05 14:49:19;;;;;;;;;8.00;7.25;;;;;29.89;23.40;101220.81;4993974;28;46285;-73
2023/06/05 14:51:44;;;;;;;;;5.25;5.25;;;;;30.00;23.56;101244.47;4994654;28;45152;-74
2023/06/05 14:54:10;;;;;;;;;5.75;5.00;;;;;30.04;23.19;101241.13;4986414;28;45689;-72
2023/06/05 14:56:35;;;;;;;;;5.75;5.75;;;;;30.09;23.43;101240.59;4981716;28;45495;-71
2023/06/05 14:59:00;;;;;;;;;5.75;5.75;;;;;30.12;24.60;101236.56;4985827;28;48637;-73
2023/06/05 15:01:26;;;;;;;;;7.00;6.75;;;;;30.13;24.03;101216.16;4988162;28;48377;-73
2023/06/05 15:03:51;;;;;;;;;7.50;7.00;;;;;30.20;23.91;101215.22;4976429;28;45731;-75
2023/06/05 15:06:16;;;;;;;;;5.00;5.00;;;;;30.31;24.05;101225.00;4993918;28;45435;-72
2023/06/05 15:08:42;;;;;;;;;6.00;4.25;;;;;30.30;23.91;101228.81;4993871;28;45840;-72
2023/06/05 15:11:07;;;;;;;;;6.50;6.25;;;;;30.32;23.83;101227.56;4993796;28;45402;-73
2023/06/05 15:13:32;;;;;;;;;6.00;6.00;;;;;30.26;24.11;101227.47;4994470;28;45466;-73
2023/06/05 15:15:59;;;;;;;;;5.00;4.50;;;;;30.34;23.99;101235.69;4993061;28;45625;-71
2023/06/05 15:18:25;;;;;;;;;5.25;5.25;;;;;30.37;23.37;101227.00;4976117;28;46171;-69
2023/06/05 15:20:51;;;;;;;;;6.50;6.00;;;;;30.41;24.10;101229.22;4997201;28;45414;-72
2023/06/05 15:23:16;;;;;;;;;7.75;5.00;;;;;30.41;24.13;101231.13;4984981;28;45357;-71
2023/06/05 15:25:42;;;;;;;;;5.00;5.00;;;;;30.41;24.00;101222.81;4997262;28;52036;-67
2023/06/05 15:28:07;;;;;;;;;5.00;5.00;;;;;30.37;23.26;101222.31;4979372;28;47164;-70
2023/06/05 15:30:33;;;;;;;;;6.00;6.00;;;;;30.28;24.05;101220.72;4997184;28;45382;-72
2023/06/05 15:32:58;;;;;;;;;5.75;5.00;;;;;30.25;24.38;101234.91;4994756;28;45404;-71
2023/06/05 15:35:25;;;;;;;;;6.25;6.25;;;;;30.22;24.25;101221.44;4978807;28;45540;-71
2023/06/05 15:37:50;;;;;;;;;5.75;5.75;;;;;30.23;23.92;101227.84;4979137;28;46234;-72
2023/06/05 15:40:16;;;;;;;;;5.00;5.00;;;;;30.25;24.47;101218.31;4996800;28;45360;-73
2023/06/05 15:42:44;;;;;;;;;5.00;5.00;;;;;30.29;23.91;101224.31;4996989;28;45236;-72
2023/06/05 15:45:15;;;;;;;;;7.00;7.00;;;;;30.31;23.79;101223.09;4996696;28;45408;-71
2023/06/05 15:47:40;;;;;;;;;0.75;0.75;;;;;30.32;24.11;101219.28;4996512;28;47492;-72
2023/06/05 15:50:07;;;;;;;;;7.50;6.00;;;;;30.35;24.21;101213.38;4997274;28;45369;-74
2023/06/05 15:52:37;;;;;;;;;8.50;7.25;;;;;30.41;24.84;101209.84;4997914;28;45317;-73
2023/06/05 15:55:03;;;;;;;;;7.75;7.75;;;;;30.46;24.57;101207.38;4996850;28;45365;-72